Map

Track Data

SID SEASON NUMBER BASIN SUBBASIN NAME ISO_TIME NATURE LAT LON WMO_WIND WMO_PRES WMO_AGENCY TRACK_TYPE DIST2LAND LANDFALL IFLAG USA_AGENCY USA_ATCF_ID USA_LAT USA_LON USA_RECORD USA_STATUS USA_WIND USA_PRES USA_SSHS USA_R34_NE USA_R34_SE USA_R34_SW USA_R34_NW USA_R50_NE USA_R50_SE USA_R50_SW USA_R50_NW USA_R64_NE USA_R64_SE USA_R64_SW USA_R64_NW USA_POCI USA_ROCI USA_RMW USA_EYE TOKYO_LAT TOKYO_LON TOKYO_GRADE TOKYO_WIND TOKYO_PRES TOKYO_R50_DIR TOKYO_R50_LONG TOKYO_R50_SHORT TOKYO_R30_DIR TOKYO_R30_LONG TOKYO_R30_SHORT TOKYO_LAND CMA_LAT CMA_LON CMA_CAT CMA_WIND CMA_PRES HKO_LAT HKO_LON HKO_CAT HKO_WIND HKO_PRES NEWDELHI_LAT NEWDELHI_LON NEWDELHI_GRADE NEWDELHI_WIND NEWDELHI_PRES NEWDELHI_CI NEWDELHI_DP NEWDELHI_POCI REUNION_LAT REUNION_LON REUNION_TYPE REUNION_WIND REUNION_PRES REUNION_TNUM REUNION_CI REUNION_RMW REUNION_R34_NE REUNION_R34_SE REUNION_R34_SW REUNION_R34_NW REUNION_R50_NE REUNION_R50_SE REUNION_R50_SW REUNION_R50_NW REUNION_R64_NE REUNION_R64_SE REUNION_R64_SW REUNION_R64_NW BOM_LAT BOM_LON BOM_TYPE BOM_WIND BOM_PRES BOM_TNUM BOM_CI BOM_RMW BOM_R34_NE BOM_R34_SE BOM_R34_SW BOM_R34_NW BOM_R50_NE BOM_R50_SE BOM_R50_SW BOM_R50_NW BOM_R64_NE BOM_R64_SE BOM_R64_SW BOM_R64_NW BOM_ROCI BOM_POCI BOM_EYE BOM_POS_METHOD BOM_PRES_METHOD NADI_LAT NADI_LON NADI_CAT NADI_WIND NADI_PRES WELLINGTON_LAT WELLINGTON_LON WELLINGTON_WIND WELLINGTON_PRES DS824_LAT DS824_LON DS824_STAGE DS824_WIND DS824_PRES TD9636_LAT TD9636_LON TD9636_STAGE TD9636_WIND TD9636_PRES TD9635_LAT TD9635_LON TD9635_WIND TD9635_PRES TD9635_ROCI NEUMANN_LAT NEUMANN_LON NEUMANN_CLASS NEUMANN_WIND NEUMANN_PRES MLC_LAT MLC_LON MLC_CLASS MLC_WIND MLC_PRES USA_GUST BOM_GUST BOM_GUST_PER REUNION_GUST REUNION_GUST_PER USA_SEAHGT USA_SEARAD_NE USA_SEARAD_SE USA_SEARAD_SW USA_SEARAD_NW STORM_SPEED STORM_DIR
1900252N10342 1900 25 NA NA NOT_NAMED 1900-09-08 12:00:00 TS 10.0000 -18.5000 40 hurdat_atl main 326 323 O_____________ hurdat_atl AL031900 10.0000 -18.5000 TS 40 0 9 289
1900252N10342 1900 25 NA NA NOT_NAMED 1900-09-08 15:00:00 TS 10.1501 -18.9499 main 336 336 P_____________ AL031900 10.1501 -18.9499 TS 42 0 9 289
1900252N10342 1900 25 NA NA NOT_NAMED 1900-09-08 18:00:00 TS 10.3000 -19.4000 45 hurdat_atl main 368 368 O_____________ hurdat_atl AL031900 10.3000 -19.4000 TS 45 0 9 289
1900252N10342 1900 25 NA NA NOT_NAMED 1900-09-08 21:00:00 TS 10.4499 -19.8500 main 405 399 P_____________ AL031900 10.4499 -19.8500 TS 47 0 9 289
1900252N10342 1900 25 NA NA NOT_NAMED 1900-09-09 00:00:00 TS 10.6000 -20.3000 50 hurdat_atl main 431 431 O_____________ hurdat_atl AL031900 10.6000 -20.3000 TS 50 0 9 289
1900252N10342 1900 25 NA NA NOT_NAMED 1900-09-09 03:00:00 TS 10.7499 -20.7500 main 475 471 P_____________ AL031900 10.7499 -20.7500 TS 52 0 9 289
1900252N10342 1900 25 NA NA NOT_NAMED 1900-09-09 06:00:00 TS 10.9000 -21.2000 55 hurdat_atl main 508 508 O_____________ hurdat_atl AL031900 10.9000 -21.2000 TS 55 0 9 288
1900252N10342 1900 25 NA NA NOT_NAMED 1900-09-09 09:00:00 TS 11.0424 -21.6501 main 556 553 P_____________ AL031900 11.0424 -21.6501 TS 57 0 9 289
1900252N10342 1900 25 NA NA NOT_NAMED 1900-09-09 12:00:00 TS 11.2000 -22.1000 60 hurdat_atl main 592 592 O_____________ hurdat_atl AL031900 11.2000 -22.1000 TS 60 0 10 292
1900252N10342 1900 25 NA NA NOT_NAMED 1900-09-09 15:00:00 TS 11.3924 -22.5500 main 641 641 P_____________ AL031900 11.3924 -22.5500 TS 62 0 10 294
1900252N10342 1900 25 NA NA NOT_NAMED 1900-09-09 18:00:00 TS 11.6000 -23.0000 65 hurdat_atl main 680 680 O_____________ hurdat_atl AL031900 11.6000 -23.0000 HU 65 1 10 294
1900252N10342 1900 25 NA NA NOT_NAMED 1900-09-09 21:00:00 TS 11.7924 -23.4501 main 726 726 P_____________ AL031900 11.7924 -23.4501 HU 67 1 10 294
1900252N10342 1900 25 NA NA NOT_NAMED 1900-09-10 00:00:00 TS 12.0000 -23.9000 70 hurdat_atl main 755 755 O_____________ hurdat_atl AL031900 12.0000 -23.9000 HU 70 1 10 297
1900252N10342 1900 25 NA NA NOT_NAMED 1900-09-10 03:00:00 TS 12.2424 -24.3500 main 797 793 P_____________ AL031900 12.2424 -24.3500 HU 70 1 10 300
1900252N10342 1900 25 NA NA NOT_NAMED 1900-09-10 06:00:00 TS 12.5000 -24.8000 70 hurdat_atl main 826 826 O_____________ hurdat_atl AL031900 12.5000 -24.8000 HU 70 1 10 299
1900252N10342 1900 25 NA NA NOT_NAMED 1900-09-10 09:00:00 TS 12.7500 -25.2725 main 869 869 P_____________ AL031900 12.7500 -25.2725 HU 70 1 10 300
1900252N10342 1900 25 NA NA NOT_NAMED 1900-09-10 12:00:00 TS 13.0000 -25.7000 70 hurdat_atl main 905 905 O_____________ hurdat_atl AL031900 13.0000 -25.7000 HU 70 1 9 305
1900252N10342 1900 25 NA NA NOT_NAMED 1900-09-10 15:00:00 TS 13.2498 -26.0151 main 932 930 P_____________ AL031900 13.2498 -26.0151 HU 70 1 8 311
1900252N10342 1900 25 NA NA NOT_NAMED 1900-09-10 18:00:00 TS 13.5000 -26.3000 70 hurdat_atl main 958 958 O_____________ hurdat_atl AL031900 13.5000 -26.3000 HU 70 1 8 309
1900252N10342 1900 25 NA NA NOT_NAMED 1900-09-10 21:00:00 TS 13.7500 -26.6426 main 987 987 P_____________ AL031900 13.7500 -26.6426 HU 70 1 8 306
1900252N10342 1900 25 NA NA NOT_NAMED 1900-09-11 00:00:00 TS 14.0000 -27.0000 70 hurdat_atl main 1026 1026 O_____________ hurdat_atl AL031900 14.0000 -27.0000 HU 70 1 9 306
1900252N10342 1900 25 NA NA NOT_NAMED 1900-09-11 03:00:00 TS 14.2500 -27.3576 main 1067 1067 P_____________ AL031900 14.2500 -27.3576 HU 70 1 8 306
1900252N10342 1900 25 NA NA NOT_NAMED 1900-09-11 06:00:00 TS 14.5000 -27.7000 70 hurdat_atl main 1098 1098 O_____________ hurdat_atl AL031900 14.5000 -27.7000 HU 70 1 8 309
1900252N10342 1900 25 NA NA NOT_NAMED 1900-09-11 09:00:00 TS 14.7499 -27.9926 main 1129 1129 P_____________ AL031900 14.7499 -27.9926 HU 72 1 8 311
1900252N10342 1900 25 NA NA NOT_NAMED 1900-09-11 12:00:00 TS 15.0000 -28.3000 75 hurdat_atl main 1161 1161 O_____________ hurdat_atl AL031900 15.0000 -28.3000 HU 75 1 8 307
1900252N10342 1900 25 NA NA NOT_NAMED 1900-09-11 15:00:00 TS 15.2575 -28.6850 main 1205 1205 P_____________ AL031900 15.2575 -28.6850 HU 77 1 9 303
1900252N10342 1900 25 NA NA NOT_NAMED 1900-09-11 18:00:00 TS 15.5000 -29.1000 80 hurdat_atl main 1248 1248 O_____________ hurdat_atl AL031900 15.5000 -29.1000 HU 80 1 9 299
1900252N10342 1900 25 NA NA NOT_NAMED 1900-09-11 21:00:00 TS 15.7000 -29.5076 main 1292 1292 P_____________ AL031900 15.7000 -29.5076 HU 82 1 9 297
1900252N10342 1900 25 NA NA NOT_NAMED 1900-09-12 00:00:00 TS 15.9000 -29.9000 85 hurdat_atl main 1337 1337 O_____________ hurdat_atl AL031900 15.9000 -29.9000 HU 85 2 8 301
1900252N10342 1900 25 NA NA NOT_NAMED 1900-09-12 03:00:00 TS 16.1274 -30.2577 main 1381 1381 P_____________ AL031900 16.1274 -30.2577 HU 85 2 8 307
1900252N10342 1900 25 NA NA NOT_NAMED 1900-09-12 06:00:00 TS 16.4000 -30.6000 85 hurdat_atl main 1416 1416 O_____________ hurdat_atl AL031900 16.4000 -30.6000 HU 85 2 9 309
1900252N10342 1900 25 NA NA NOT_NAMED 1900-09-12 09:00:00 TS 16.6750 -30.9504 main 1462 1462 P_____________ AL031900 16.6750 -30.9504 HU 85 2 10 316
1900252N10342 1900 25 NA NA NOT_NAMED 1900-09-12 12:00:00 TS 17.1000 -31.3000 85 hurdat_atl main 1500 1500 O_____________ hurdat_atl AL031900 17.1000 -31.3000 HU 85 2 13 329
1900252N10342 1900 25 NA NA NOT_NAMED 1900-09-12 15:00:00 TS 17.8200 -31.6572 main 1555 1555 P_____________ AL031900 17.8200 -31.6572 HU 85 2 17 336
1900252N10342 1900 25 NA NA NOT_NAMED 1900-09-12 18:00:00 TS 18.6000 -32.0000 85 hurdat_atl main 1578 1576 O_____________ hurdat_atl AL031900 18.6000 -32.0000 HU 85 2 15 335
1900252N10342 1900 25 NA NA NOT_NAMED 1900-09-12 21:00:00 TS 19.1800 -32.3228 main 1597 1597 P_____________ AL031900 19.1800 -32.3228 HU 85 2 12 333
1900252N10342 1900 25 NA NA NOT_NAMED 1900-09-13 00:00:00 TS 19.7000 -32.6000 85 hurdat_atl main 1620 1619 O_____________ hurdat_atl AL031900 19.7000 -32.6000 HU 85 2 12 337
1900252N10342 1900 25 NA NA NOT_NAMED 1900-09-13 03:00:00 TS 20.2424 -32.8079 main 1635 1633 P_____________ AL031900 20.2424 -32.8079 HU 85 2 12 341
1900252N10342 1900 25 NA NA NOT_NAMED 1900-09-13 06:00:00 TS 20.8000 -33.0000 85 hurdat_atl main 1651 1651 O_____________ hurdat_atl AL031900 20.8000 -33.0000 HU 85 2 12 340
1900252N10342 1900 25 NA NA NOT_NAMED 1900-09-13 09:00:00 TS 21.4075 -33.2499 main 1670 1670 P_____________ AL031900 21.4075 -33.2499 HU 85 2 13 339
1900252N10342 1900 25 NA NA NOT_NAMED 1900-09-13 12:00:00 TS 22.0000 -33.5000 85 hurdat_atl main 1701 1700 O_____________ hurdat_atl AL031900 22.0000 -33.5000 HU 85 2 12 339
1900252N10342 1900 25 NA NA NOT_NAMED 1900-09-13 15:00:00 TS 22.5149 -33.7078 main 1720 1720 P_____________ AL031900 22.5149 -33.7078 HU 85 2 11 340
1900252N10342 1900 25 NA NA NOT_NAMED 1900-09-13 18:00:00 TS 23.0000 -33.9000 85 hurdat_atl main 1740 1740 O_____________ hurdat_atl AL031900 23.0000 -33.9000 HU 85 2 11 340
1900252N10342 1900 25 NA NA NOT_NAMED 1900-09-13 21:00:00 TS 23.5000 -34.1002 main 1763 1763 P_____________ AL031900 23.5000 -34.1002 HU 85 2 11 340
1900252N10342 1900 25 NA NA NOT_NAMED 1900-09-14 00:00:00 TS 24.0000 -34.3000 85 hurdat_atl main 1787 1787 O_____________ hurdat_atl AL031900 24.0000 -34.3000 HU 85 2 11 340
1900252N10342 1900 25 NA NA NOT_NAMED 1900-09-14 03:00:00 TS 24.5000 -34.5076 main 1808 1804 P_____________ AL031900 24.5000 -34.5076 HU 85 2 11 340
1900252N10342 1900 25 NA NA NOT_NAMED 1900-09-14 06:00:00 TS 25.0000 -34.7000 85 hurdat_atl main 1811 1808 O_____________ hurdat_atl AL031900 25.0000 -34.7000 HU 85 2 11 340
1900252N10342 1900 25 NA NA NOT_NAMED 1900-09-14 09:00:00 TS 25.5075 -34.9096 main 1817 1814 P_____________ AL031900 25.5075 -34.9096 HU 85 2 10 345
1900252N10342 1900 25 NA NA NOT_NAMED 1900-09-14 12:00:00 TS 26.0000 -35.0000 85 hurdat_atl main 1814 1796 O_____________ hurdat_atl AL031900 26.0000 -35.0000 HU 85 2 9 2
1900252N10342 1900 25 NA NA NOT_NAMED 1900-09-14 15:00:00 TS 26.4349 -34.8750 main 1796 1757 P_____________ AL031900 26.4349 -34.8750 HU 85 2 10 22
1900252N10342 1900 25 NA NA NOT_NAMED 1900-09-14 18:00:00 TS 26.9000 -34.6000 85 hurdat_atl main 1757 1718 O_____________ hurdat_atl AL031900 26.9000 -34.6000 HU 85 2 12 27
1900252N10342 1900 25 NA NA NOT_NAMED 1900-09-14 21:00:00 TS 27.5000 -34.2802 main 1718 1672 P_____________ AL031900 27.5000 -34.2802 HU 82 1 14 27
1900252N10342 1900 25 NA NA NOT_NAMED 1900-09-15 00:00:00 TS 28.1000 -33.9000 80 hurdat_atl main 1672 1629 O_____________ hurdat_atl AL031900 28.1000 -33.9000 HU 80 1 13 32
1900252N10342 1900 25 NA NA NOT_NAMED 1900-09-15 03:00:00 TS 28.5874 -33.5072 main 1629 1589 P_____________ AL031900 28.5874 -33.5072 HU 77 1 11 38
1900252N10342 1900 25 NA NA NOT_NAMED 1900-09-15 06:00:00 TS 29.0000 -33.1000 75 hurdat_atl main 1589 1550 O_____________ hurdat_atl AL031900 29.0000 -33.1000 HU 75 1 11 42
1900252N10342 1900 25 NA NA NOT_NAMED 1900-09-15 09:00:00 TS 29.3950 -32.6776 main 1550 1512 P_____________ AL031900 29.3950 -32.6776 HU 75 1 10 45
1900252N10342 1900 25 NA NA NOT_NAMED 1900-09-15 12:00:00 TS 29.7000 -32.3000 75 hurdat_atl main 1512 1484 O_____________ hurdat_atl AL031900 29.7000 -32.3000 HU 75 1 8 49
1900252N10342 1900 25 NA NA NOT_NAMED 1900-09-15 15:00:00 TS 29.8873 -32.0271 main 1484 1466 P_____________ AL031900 29.8873 -32.0271 HU 75 1 5 55
1900252N10342 1900 25 NA NA NOT_NAMED 1900-09-15 18:00:00 TS 30.0000 -31.8000 75 hurdat_atl main 1466 1447 O_____________ hurdat_atl AL031900 30.0000 -31.8000 HU 75 1 5 62
1900252N10342 1900 25 NA NA NOT_NAMED 1900-09-15 21:00:00 TS 30.1074 -31.5574 main 1447 1419 P_____________ AL031900 30.1074 -31.5574 HU 75 1 5 65
1900252N10342 1900 25 NA NA NOT_NAMED 1900-09-16 00:00:00 TS 30.2000 -31.3000 75 hurdat_atl main 1419 1392 O_____________ hurdat_atl AL031900 30.2000 -31.3000 HU 75 1 5 66
1900252N10342 1900 25 NA NA NOT_NAMED 1900-09-16 03:00:00 TS 30.3149 -31.0151 main 1392 1364 P_____________ AL031900 30.3149 -31.0151 HU 75 1 6 69
1900252N10342 1900 25 NA NA NOT_NAMED 1900-09-16 06:00:00 TS 30.4000 -30.7000 75 hurdat_atl main 1364 1336 O_____________ hurdat_atl AL031900 30.4000 -30.7000 HU 75 1 6 79
1900252N10342 1900 25 NA NA NOT_NAMED 1900-09-16 09:00:00 TS 30.4226 -30.3424 main 1326 1298 P_____________ AL031900 30.4226 -30.3424 HU 75 1 6 90
1900252N10342 1900 25 NA NA NOT_NAMED 1900-09-16 12:00:00 TS 30.4000 -30.0000 75 hurdat_atl main 1298 1269 O_____________ hurdat_atl AL031900 30.4000 -30.0000 HU 75 1 5 96
1900252N10342 1900 25 NA NA NOT_NAMED 1900-09-16 15:00:00 TS 30.3649 -29.7350 main 1269 1249 P_____________ AL031900 30.3649 -29.7350 HU 75 1 4 103
1900252N10342 1900 25 NA NA NOT_NAMED 1900-09-16 18:00:00 TS 30.3000 -29.5000 75 hurdat_atl main 1249 1219 O_____________ hurdat_atl AL031900 30.3000 -29.5000 HU 75 1 5 106
1900252N10342 1900 25 NA NA NOT_NAMED 1900-09-16 21:00:00 TS 30.2375 -29.2276 main 1219 1198 P_____________ AL031900 30.2375 -29.2276 HU 75 1 5 115
1900252N10342 1900 25 NA NA NOT_NAMED 1900-09-17 00:00:00 TS 30.1000 -29.0000 75 hurdat_atl main 1198 1185 O_____________ hurdat_atl AL031900 30.1000 -29.0000 HU 75 1 5 142
1900252N10342 1900 25 NA NA NOT_NAMED 1900-09-17 03:00:00 TS 29.8224 -28.8473 main 1176 1173 P_____________ AL031900 29.8224 -28.8473 HU 75 1 6 164
1900252N10342 1900 25 NA NA NOT_NAMED 1900-09-17 06:00:00 TS 29.5000 -28.8000 75 hurdat_atl main 1173 1172 O_____________ hurdat_atl AL031900 29.5000 -28.8000 HU 75 1 6 181
1900252N10342 1900 25 NA NA NOT_NAMED 1900-09-17 09:00:00 TS 29.2199 -28.8477 main 1172 1172 P_____________ AL031900 29.2199 -28.8477 HU 75 1 5 199
1900252N10342 1900 25 NA NA NOT_NAMED 1900-09-17 12:00:00 TS 29.0000 -29.0000 75 hurdat_atl main 1191 1191 O_____________ hurdat_atl AL031900 29.0000 -29.0000 HU 75 1 5 224
1900252N10342 1900 25 NA NA NOT_NAMED 1900-09-17 15:00:00 TS 28.8775 -29.2199 main 1210 1210 P_____________ AL031900 28.8775 -29.2199 HU 75 1 5 245
1900252N10342 1900 25 NA NA NOT_NAMED 1900-09-17 18:00:00 TS 28.8000 -29.5000 75 hurdat_atl main 1239 1239 O_____________ hurdat_atl AL031900 28.8000 -29.5000 HU 75 1 5 251
1900252N10342 1900 25 NA NA NOT_NAMED 1900-09-17 21:00:00 TS 28.7000 -29.7925 main 1269 1269 P_____________ AL031900 28.7000 -29.7925 HU 75 1 6 249
1900252N10342 1900 25 NA NA NOT_NAMED 1900-09-18 00:00:00 TS 28.6000 -30.1000 75 hurdat_atl main 1298 1298 O_____________ hurdat_atl AL031900 28.6000 -30.1000 HU 75 1 6 249
1900252N10342 1900 25 NA NA NOT_NAMED 1900-09-18 03:00:00 TS 28.4998 -30.3849 main 1328 1328 P_____________ AL031900 28.4998 -30.3849 HU 75 1 6 249
1900252N10342 1900 25 NA NA NOT_NAMED 1900-09-18 06:00:00 TS 28.4000 -30.7000 75 hurdat_atl main 1357 1357 O_____________ hurdat_atl AL031900 28.4000 -30.7000 HU 75 1 6 253
1900252N10342 1900 25 NA NA NOT_NAMED 1900-09-18 09:00:00 TS 28.3149 -31.0697 main 1397 1397 P_____________ AL031900 28.3149 -31.0697 HU 72 1 7 254
1900252N10342 1900 25 NA NA NOT_NAMED 1900-09-18 12:00:00 TS 28.2000 -31.5000 70 hurdat_atl main 1437 1437 O_____________ hurdat_atl AL031900 28.2000 -31.5000 HU 70 1 8 250
1900252N10342 1900 25 NA NA NOT_NAMED 1900-09-18 15:00:00 TS 28.0298 -31.9698 main 1487 1487 P_____________ AL031900 28.0298 -31.9698 HU 70 1 10 246
1900252N10342 1900 25 NA NA NOT_NAMED 1900-09-18 18:00:00 TS 27.8000 -32.5000 70 hurdat_atl main 1538 1538 O_____________ hurdat_atl AL031900 27.8000 -32.5000 HU 70 1 11 242
1900252N10342 1900 25 NA NA NOT_NAMED 1900-09-18 21:00:00 TS 27.5074 -33.0851 main 1601 1601 P_____________ AL031900 27.5074 -33.0851 HU 67 1 12 241
1900252N10342 1900 25 NA NA NOT_NAMED 1900-09-19 00:00:00 TS 27.2000 -33.7000 65 hurdat_atl main 1664 1664 O_____________ hurdat_atl AL031900 27.2000 -33.7000 HU 65 1 12 241
1900252N10342 1900 25 NA NA NOT_NAMED 1900-09-19 03:00:00 TS 26.9193 -34.2699 main 1728 1728 P_____________ AL031900 26.9193 -34.2699 HU 65 1 12 245
1900252N10342 1900 25 NA NA NOT_NAMED 1900-09-19 06:00:00 TS 26.7000 -34.9000 65 hurdat_atl main 1790 1790 O_____________ hurdat_atl AL031900 26.7000 -34.9000 HU 65 1 13 254
1900252N10342 1900 25 NA NA NOT_NAMED 1900-09-19 09:00:00 TS 26.5550 -35.6700 main 1870 1870 P_____________ AL031900 26.5550 -35.6700 HU 65 1 14 262
1900252N10342 1900 25 NA NA NOT_NAMED 1900-09-19 12:00:00 TS 26.5000 -36.5000 65 hurdat_atl main 1950 1950 O_____________ hurdat_atl AL031900 26.5000 -36.5000 HU 65 1 14 268
1900252N10342 1900 25 NA NA NOT_NAMED 1900-09-19 15:00:00 TS 26.5043 -37.2852 main 2029 2029 P_____________ AL031900 26.5043 -37.2852 HU 65 1 14 274
1900252N10342 1900 25 NA NA NOT_NAMED 1900-09-19 18:00:00 TS 26.6000 -38.1000 65 hurdat_atl main 2105 2105 O_____________ hurdat_atl AL031900 26.6000 -38.1000 HU 65 1 15 280
1900252N10342 1900 25 NA NA NOT_NAMED 1900-09-19 21:00:00 TS 26.7699 -38.9924 main 2189 2189 P_____________ AL031900 26.7699 -38.9924 HU 65 1 17 284
1900252N10342 1900 25 NA NA NOT_NAMED 1900-09-20 00:00:00 TS 27.0000 -39.9000 65 hurdat_atl main 2273 2273 O_____________ hurdat_atl AL031900 27.0000 -39.9000 HU 65 1 17 287
1900252N10342 1900 25 NA NA NOT_NAMED 1900-09-20 03:00:00 TS 27.2422 -40.7801 main 2358 2356 P_____________ AL031900 27.2422 -40.7801 HU 62 0 16 288
1900252N10342 1900 25 NA NA NOT_NAMED 1900-09-20 06:00:00 TS 27.5000 -41.6000 60 hurdat_atl main 2356 2309 O_____________ hurdat_atl AL031900 27.5000 -41.6000 TS 60 0 15 290
1900252N10342 1900 25 NA NA NOT_NAMED 1900-09-20 09:00:00 TS 27.7570 -42.3377 main 2299 2253 P_____________ AL031900 27.7570 -42.3377 TS 55 0 13 292
1900252N10342 1900 25 NA NA NOT_NAMED 1900-09-20 12:00:00 TS 28.0000 -43.0000 50 hurdat_atl main 2253 2212 O_____________ hurdat_atl AL031900 28.0000 -43.0000 TS 50 0 12 291
1900252N10342 1900 25 NA NA NOT_NAMED 1900-09-20 15:00:00 TS 28.1998 -43.6379 main 2212 2172 P_____________ AL031900 28.1998 -43.6379 TS 47 0 11 291
1900252N10342 1900 25 NA NA NOT_NAMED 1900-09-20 18:00:00 TS 28.4000 -44.2000 45 hurdat_atl main 2172 2136 O_____________ hurdat_atl AL031900 28.4000 -44.2000 TS 45 0 10 296
1900252N10342 1900 25 NA NA NOT_NAMED 1900-09-20 21:00:00 TS 28.6497 -44.6801 main 2136 2092 P_____________ AL031900 28.6497 -44.6801 TS 42 0 9 302
1900252N10342 1900 25 NA NA NOT_NAMED 1900-09-21 00:00:00 TS 28.9000 -45.1000 40 hurdat_atl main 2092 2059 O_____________ hurdat_atl AL031900 28.9000 -45.1000 TS 40 0 9 302
1900252N10342 1900 25 NA NA NOT_NAMED 1900-09-21 03:00:00 TS 29.1149 -45.5152 main 2059 2027 P_____________ AL031900 29.1149 -45.5152 TS 40 0 8 300
1900252N10342 1900 25 NA NA NOT_NAMED 1900-09-21 06:00:00 TS 29.3000 -45.9000 40 hurdat_atl main 2027 1997 O_____________ hurdat_atl AL031900 29.3000 -45.9000 TS 40 0 7 298
1900252N10342 1900 25 NA NA NOT_NAMED 1900-09-21 09:00:00 TS 29.4649 -46.2651 main 1995 1976 P_____________ AL031900 29.4649 -46.2651 TS 37 0 7 296
1900252N10342 1900 25 NA NA NOT_NAMED 1900-09-21 12:00:00 TS 29.6000 -46.6000 35 hurdat_atl main 1976 1958 O_____________ hurdat_atl AL031900 29.6000 -46.6000 TS 35 0 6 294
1900252N10342 1900 25 NA NA NOT_NAMED 1900-09-21 15:00:00 TS 29.7149 -46.9151 main 1958 1940 P_____________ AL031900 29.7149 -46.9151 TS 35 0 6 291
1900252N10342 1900 25 NA NA NOT_NAMED 1900-09-21 18:00:00 TS 29.8000 -47.2000 35 hurdat_atl main 1940 1925 O_____________ hurdat_atl AL031900 29.8000 -47.2000 TS 35 0 5 287
1900252N10342 1900 25 NA NA NOT_NAMED 1900-09-21 21:00:00 TS 29.8574 -47.4501 main 1923 1918 P_____________ AL031900 29.8574 -47.4501 TS 35 0 4 283
1900252N10342 1900 25 NA NA NOT_NAMED 1900-09-22 00:00:00 TS 29.9000 -47.7000 35 hurdat_atl main 1918 1912 O_____________ hurdat_atl AL031900 29.9000 -47.7000 TS 35 0 5 281
1900252N10342 1900 25 NA NA NOT_NAMED 1900-09-22 03:00:00 TS 29.9500 -47.9925 main 1912 1895 P_____________ AL031900 29.9500 -47.9925 TS 35 0 5 281
1900252N10342 1900 25 NA NA NOT_NAMED 1900-09-22 06:00:00 TS 30.0000 -48.3000 35 hurdat_atl main 1895 1890 O_____________ hurdat_atl AL031900 30.0000 -48.3000 TS 35 0 5 281
1900252N10342 1900 25 NA NA NOT_NAMED 1900-09-22 09:00:00 TS 30.0499 -48.6000 main 1890 1874 P_____________ AL031900 30.0499 -48.6000 TS 35 0 5 281
1900252N10342 1900 25 NA NA NOT_NAMED 1900-09-22 12:00:00 TS 30.1000 -48.9000 35 hurdat_atl main 1874 1869 O_____________ hurdat_atl AL031900 30.1000 -48.9000 TS 35 0 5 281
1900252N10342 1900 25 NA NA NOT_NAMED 1900-09-22 15:00:00 TS 30.1499 -49.1925 main 1869 1853 P_____________ AL031900 30.1499 -49.1925 TS 32 -1 5 281
1900252N10342 1900 25 NA NA NOT_NAMED 1900-09-22 18:00:00 TS 30.2000 -49.5000 30 hurdat_atl main 1853 1838 O_____________ hurdat_atl AL031900 30.2000 -49.5000 TD 30 -1 6 281
1900252N10342 1900 25 NA NA NOT_NAMED 1900-09-22 21:00:00 TS 30.2575 -49.8499 main 1838 1833 P_____________ AL031900 30.2575 -49.8499 TD 30 -1 6 279
1900252N10342 1900 25 NA NA NOT_NAMED 1900-09-23 00:00:00 TS 30.3000 -50.2000 30 hurdat_atl main 1833 1829 O_____________ hurdat_atl AL031900 30.3000 -50.2000 TD 30 -1 6 274
1900252N10342 1900 25 NA NA NOT_NAMED 1900-09-23 03:00:00 TS 30.2998 -50.5002 main 1829 1826 P_____________ AL031900 30.2998 -50.5002 TD 27 -1 5 270
1900252N10342 1900 25 NA NA NOT_NAMED 1900-09-23 06:00:00 TS 30.3000 -50.8000 25 hurdat_atl main 1826 1823 O_____________ hurdat_atl AL031900 30.3000 -50.8000 TD 25 -1 6 274
1900252N10342 1900 25 NA NA NOT_NAMED 1900-09-23 09:00:00 TS 30.3350 -51.1425 main 1823 1809 P_____________ AL031900 30.3350 -51.1425 TD 25 -1 6 279
1900252N10342 1900 25 NA NA NOT_NAMED 1900-09-23 12:00:00 TS 30.4000 -51.5000 25 hurdat_atl main 1809 1796 O_____________ hurdat_atl AL031900 30.4000 -51.5000 TD 25 -1 6 284
1900252N10342 1900 25 NA NA NOT_NAMED 1900-09-23 15:00:00 TS 30.4927 -51.8523 main 1795 1783 P_____________ AL031900 30.4927 -51.8523 TD 22 -1 6 288
1900252N10342 1900 25 NA NA NOT_NAMED 1900-09-23 18:00:00 TS 30.6000 -52.2000 20 hurdat_atl main 1783 O_____________ hurdat_atl AL031900 30.6000 -52.2000 TD 20 -1 6 290

About IBTrACS Database

This database is a web-friendly format of International Best Track Archive for Climate Stewardship (IBTrACS), a global best track data archive curated by NOAA dating back to 1842.

Updated: 2021-10-21